sensor_id;sensor_type;location;lat;lon;timestamp;temperature;humidity
33815;DHT22;20121;51.910;8.406;2022-11-20T00:01:21;19.90;97.00
33815;DHT22;20121;51.910;8.406;2022-11-20T00:03:47;19.80;97.20
33815;DHT22;20121;51.910;8.406;2022-11-20T00:06:14;19.80;97.20
33815;DHT22;20121;51.910;8.406;2022-11-20T00:08:41;19.80;97.20
33815;DHT22;20121;51.910;8.406;2022-11-20T00:13:38;19.80;97.30
33815;DHT22;20121;51.910;8.406;2022-11-20T00:16:07;19.70;97.10
33815;DHT22;20121;51.910;8.406;2022-11-20T00:18:34;19.70;97.30
33815;DHT22;20121;51.910;8.406;2022-11-20T00:21:07;19.70;97.10
33815;DHT22;20121;51.910;8.406;2022-11-20T00:23:33;19.70;97.30
33815;DHT22;20121;51.910;8.406;2022-11-20T00:26:06;19.60;97.30
33815;DHT22;20121;51.910;8.406;2022-11-20T00:28:32;19.60;97.10
33815;DHT22;20121;51.910;8.406;2022-11-20T00:31:05;19.60;97.10
33815;DHT22;20121;51.910;8.406;2022-11-20T00:33:31;19.60;97.30
33815;DHT22;20121;51.910;8.406;2022-11-20T00:36:08;19.50;99.90
33815;DHT22;20121;51.910;8.406;2022-11-20T00:38:34;19.60;97.30
33815;DHT22;20121;51.910;8.406;2022-11-20T00:41:03;19.60;97.10
33815;DHT22;20121;51.910;8.406;2022-11-20T00:43:29;19.60;97.40
33815;DHT22;20121;51.910;8.406;2022-11-20T00:46:06;19.60;97.40
33815;DHT22;20121;51.910;8.406;2022-11-20T00:48:32;19.50;97.30
33815;DHT22;20121;51.910;8.406;2022-11-20T00:50:58;19.50;97.10
33815;DHT22;20121;51.910;8.406;2022-11-20T00:53:24;19.50;97.40
33815;DHT22;20121;51.910;8.406;2022-11-20T00:56:01;19.50;97.40
33815;DHT22;20121;51.910;8.406;2022-11-20T00:58:35;19.50;97.40
33815;DHT22;20121;51.910;8.406;2022-11-20T01:01:03;19.50;97.10
33815;DHT22;20121;51.910;8.406;2022-11-20T01:03:35;19.40;97.40
33815;DHT22;20121;51.910;8.406;2022-11-20T01:06:02;19.40;97.30
33815;DHT22;20121;51.910;8.406;2022-11-20T01:08:32;19.50;97.40
33815;DHT22;20121;51.910;8.406;2022-11-20T01:11:00;19.40;97.10
33815;DHT22;20121;51.910;8.406;2022-11-20T01:13:27;19.40;97.40
33815;DHT22;20121;51.910;8.406;2022-11-20T01:18:34;19.40;97.40
33815;DHT22;20121;51.910;8.406;2022-11-20T01:21:11;19.40;97.20
33815;DHT22;20121;51.910;8.406;2022-11-20T01:23:40;19.40;97.40
33815;DHT22;20121;51.910;8.406;2022-11-20T01:26:08;19.40;97.40
33815;DHT22;20121;51.910;8.406;2022-11-20T01:28:35;19.40;97.40
33815;DHT22;20121;51.910;8.406;2022-11-20T01:31:01;19.40;97.20
33815;DHT22;20121;51.910;8.406;2022-11-20T01:33:27;19.40;97.40
33815;DHT22;20121;51.910;8.406;2022-11-20T01:35:53;19.40;97.40
33815;DHT22;20121;51.910;8.406;2022-11-20T01:38:19;19.40;97.40
33815;DHT22;20121;51.910;8.406;2022-11-20T01:40:54;19.40;97.20
33815;DHT22;20121;51.910;8.406;2022-11-20T01:43:21;19.30;97.30
33815;DHT22;20121;51.910;8.406;2022-11-20T01:46:01;19.30;97.70
33815;DHT22;20121;51.910;8.406;2022-11-20T01:48:36;19.40;97.40
33815;DHT22;20121;51.910;8.406;2022-11-20T01:51:04;19.00;98.30
33815;DHT22;20121;51.910;8.406;2022-11-20T01:53:34;19.00;99.90
33815;DHT22;20121;51.910;8.406;2022-11-20T01:56:03;19.30;97.30
33815;DHT22;20121;51.910;8.406;2022-11-20T01:58:34;19.30;97.30
33815;DHT22;20121;51.910;8.406;2022-11-20T02:01:00;19.30;97.10
33815;DHT22;20121;51.910;8.406;2022-11-20T02:03:26;19.30;97.30
33815;DHT22;20121;51.910;8.406;2022-11-20T02:08:28;19.30;97.70
33815;DHT22;20121;51.910;8.406;2022-11-20T02:10:54;19.30;97.10
33815;DHT22;20121;51.910;8.406;2022-11-20T02:13:19;19.30;97.30
33815;DHT22;20121;51.910;8.406;2022-11-20T02:16:04;19.30;97.70
33815;DHT22;20121;51.910;8.406;2022-11-20T02:18:31;19.30;97.30
33815;DHT22;20121;51.910;8.406;2022-11-20T02:21:28;19.20;97.00
33815;DHT22;20121;51.910;8.406;2022-11-20T02:26:28;19.20;97.30
33815;DHT22;20121;51.910;8.406;2022-11-20T02:28:54;19.20;97.30
33815;DHT22;20121;51.910;8.406;2022-11-20T02:31:20;19.20;97.00
33815;DHT22;20121;51.910;8.406;2022-11-20T02:33:46;19.20;97.20
33815;DHT22;20121;51.910;8.406;2022-11-20T02:36:14;19.20;97.20
33815;DHT22;20121;51.910;8.406;2022-11-20T02:38:42;19.20;97.20
33815;DHT22;20121;51.910;8.406;2022-11-20T02:41:08;19.20;96.90
33815;DHT22;20121;51.910;8.406;2022-11-20T02:43:34;19.20;97.20
33815;DHT22;20121;51.910;8.406;2022-11-20T02:45:59;19.20;97.20
33815;DHT22;20121;51.910;8.406;2022-11-20T02:48:25;19.10;97.10
33815;DHT22;20121;51.910;8.406;2022-11-20T02:50:51;19.10;96.90
33815;DHT22;20121;51.910;8.406;2022-11-20T02:53:16;19.10;97.10
33815;DHT22;20121;51.910;8.406;2022-11-20T02:55:42;19.10;97.10
33815;DHT22;20121;51.910;8.406;2022-11-20T02:58:07;19.10;97.10
33815;DHT22;20121;51.910;8.406;2022-11-20T03:00:33;19.00;96.80
33815;DHT22;20121;51.910;8.406;2022-11-20T03:02:59;19.00;97.10
33815;DHT22;20121;51.910;8.406;2022-11-20T03:05:24;19.40;99.90
33815;DHT22;20121;51.910;8.406;2022-11-20T03:07:50;19.00;97.10
33815;DHT22;20121;51.910;8.406;2022-11-20T03:10:15;19.00;96.80
33815;DHT22;20121;51.910;8.406;2022-11-20T03:12:41;19.00;97.00
33815;DHT22;20121;51.910;8.406;2022-11-20T03:15:07;19.00;97.00
33815;DHT22;20121;51.910;8.406;2022-11-20T03:17:33;19.00;97.00
33815;DHT22;20121;51.910;8.406;2022-11-20T03:19:59;19.00;96.80
33815;DHT22;20121;51.910;8.406;2022-11-20T03:24:50;19.00;96.80
33815;DHT22;20121;51.910;8.406;2022-11-20T03:27:16;19.00;97.00
33815;DHT22;20121;51.910;8.406;2022-11-20T03:29:42;18.90;96.70
33815;DHT22;20121;51.910;8.406;2022-11-20T03:32:07;18.90;97.30
33815;DHT22;20121;51.910;8.406;2022-11-20T03:34:33;18.90;96.90
33815;DHT22;20121;51.910;8.406;2022-11-20T03:36:58;18.90;96.90
33815;DHT22;20121;51.910;8.406;2022-11-20T03:39:24;19.00;99.90
33815;DHT22;20121;51.910;8.406;2022-11-20T03:41:50;18.90;96.90
33815;DHT22;20121;51.910;8.406;2022-11-20T03:44:15;18.90;96.90
33815;DHT22;20121;51.910;8.406;2022-11-20T03:46:41;18.90;96.90
33815;DHT22;20121;51.910;8.406;2022-11-20T03:49:06;18.90;96.90
33815;DHT22;20121;51.910;8.406;2022-11-20T03:51:34;18.90;96.60
33815;DHT22;20121;51.910;8.406;2022-11-20T03:54:04;18.90;96.90
33815;DHT22;20121;51.910;8.406;2022-11-20T03:56:32;18.90;96.90
33815;DHT22;20121;51.910;8.406;2022-11-20T03:58:58;18.90;96.90
33815;DHT22;20121;51.910;8.406;2022-11-20T04:01:26;18.80;96.60
33815;DHT22;20121;51.910;8.406;2022-11-20T04:03:53;18.80;96.80
33815;DHT22;20121;51.910;8.406;2022-11-20T04:06:29;18.80;96.80
33815;DHT22;20121;51.910;8.406;2022-11-20T04:08:58;18.80;96.80
33815;DHT22;20121;51.910;8.406;2022-11-20T04:11:29;18.80;96.50
33815;DHT22;20121;51.910;8.406;2022-11-20T04:14:00;18.80;96.80
33815;DHT22;20121;51.910;8.406;2022-11-20T04:16:27;18.80;96.80
33815;DHT22;20121;51.910;8.406;2022-11-20T04:19:00;18.70;96.70
33815;DHT22;20121;51.910;8.406;2022-11-20T04:21:27;18.70;96.50
33815;DHT22;20121;51.910;8.406;2022-11-20T04:23:53;18.80;96.80
33815;DHT22;20121;51.910;8.406;2022-11-20T04:26:20;18.80;96.70
33815;DHT22;20121;51.910;8.406;2022-11-20T04:28:45;18.70;96.70
33815;DHT22;20121;51.910;8.406;2022-11-20T04:31:17;18.70;96.40
33815;DHT22;20121;51.910;8.406;2022-11-20T04:33:43;18.70;96.70
33815;DHT22;20121;51.910;8.406;2022-11-20T04:36:17;18.70;96.60
33815;DHT22;20121;51.910;8.406;2022-11-20T04:38:43;18.70;96.70
33815;DHT22;20121;51.910;8.406;2022-11-20T04:41:17;18.70;96.40
33815;DHT22;20121;51.910;8.406;2022-11-20T04:43:50;18.20;96.40
33815;DHT22;20121;51.910;8.406;2022-11-20T04:46:20;18.70;97.00
33815;DHT22;20121;51.910;8.406;2022-11-20T04:48:46;18.70;97.00
33815;DHT22;20121;51.910;8.406;2022-11-20T04:51:12;18.60;96.30
33815;DHT22;20121;51.910;8.406;2022-11-20T04:53:38;18.60;96.60
33815;DHT22;20121;51.910;8.406;2022-11-20T04:56:06;18.60;96.60
33815;DHT22;20121;51.910;8.406;2022-11-20T04:58:33;18.70;96.60
33815;DHT22;20121;51.910;8.406;2022-11-20T05:01:13;18.60;96.30
33815;DHT22;20121;51.910;8.406;2022-11-20T05:03:42;18.60;96.60
33815;DHT22;20121;51.910;8.406;2022-11-20T05:06:09;18.60;96.60
33815;DHT22;20121;51.910;8.406;2022-11-20T05:08:35;18.60;96.60
33815;DHT22;20121;51.910;8.406;2022-11-20T05:11:06;18.60;99.90
33815;DHT22;20121;51.910;8.406;2022-11-20T05:13:31;18.70;96.60
33815;DHT22;20121;51.910;8.406;2022-11-20T05:16:08;18.70;96.60
33815;DHT22;20121;51.910;8.406;2022-11-20T05:18:35;18.60;96.50
33815;DHT22;20121;51.910;8.406;2022-11-20T05:21:01;18.70;96.30
33815;DHT22;20121;51.910;8.406;2022-11-20T05:23:28;18.60;96.50
33815;DHT22;20121;51.910;8.406;2022-11-20T05:25:55;18.70;96.50
33815;DHT22;20121;51.910;8.406;2022-11-20T05:28:22;18.60;96.50
33815;DHT22;20121;51.910;8.406;2022-11-20T05:30:48;18.60;96.20
33815;DHT22;20121;51.910;8.406;2022-11-20T05:33:14;18.60;96.40
33815;DHT22;20121;51.910;8.406;2022-11-20T05:35:40;18.70;96.50
33815;DHT22;20121;51.910;8.406;2022-11-20T05:38:05;18.70;96.40
33815;DHT22;20121;51.910;8.406;2022-11-20T05:40:31;18.60;96.10
33815;DHT22;20121;51.910;8.406;2022-11-20T05:42:56;18.60;96.40
33815;DHT22;20121;51.910;8.406;2022-11-20T05:45:22;18.60;96.40
33815;DHT22;20121;51.910;8.406;2022-11-20T05:47:48;18.70;96.40
33815;DHT22;20121;51.910;8.406;2022-11-20T05:50:14;18.60;96.10
33815;DHT22;20121;51.910;8.406;2022-11-20T05:52:40;18.60;96.30
33815;DHT22;20121;51.910;8.406;2022-11-20T05:55:06;18.60;96.30
33815;DHT22;20121;51.910;8.406;2022-11-20T05:57:32;18.60;96.30
33815;DHT22;20121;51.910;8.406;2022-11-20T05:59:57;18.60;96.00
33815;DHT22;20121;51.910;8.406;2022-11-20T06:02:23;18.60;96.30
33815;DHT22;20121;51.910;8.406;2022-11-20T06:04:49;18.60;96.20
33815;DHT22;20121;51.910;8.406;2022-11-20T06:07:14;18.60;96.20
33815;DHT22;20121;51.910;8.406;2022-11-20T06:09:40;18.60;95.90
33815;DHT22;20121;51.910;8.406;2022-11-20T06:12:06;18.60;96.20
33815;DHT22;20121;51.910;8.406;2022-11-20T06:14:32;18.60;96.20
33815;DHT22;20121;51.910;8.406;2022-11-20T06:16:58;18.60;96.20
33815;DHT22;20121;51.910;8.406;2022-11-20T06:19:23;18.90;99.90
33815;DHT22;20121;51.910;8.406;2022-11-20T06:21:49;18.60;96.20
33815;DHT22;20121;51.910;8.406;2022-11-20T06:24:16;18.60;96.20
33815;DHT22;20121;51.910;8.406;2022-11-20T06:26:42;18.60;96.10
33815;DHT22;20121;51.910;8.406;2022-11-20T06:29:07;18.60;96.10
33815;DHT22;20121;51.910;8.406;2022-11-20T06:31:33;18.40;99.90
33815;DHT22;20121;51.910;8.406;2022-11-20T06:34:00;18.60;96.10
33815;DHT22;20121;51.910;8.406;2022-11-20T06:36:26;18.60;96.10
33815;DHT22;20121;51.910;8.406;2022-11-20T06:38:52;18.60;96.40
33815;DHT22;20121;51.910;8.406;2022-11-20T06:41:21;18.60;95.90
33815;DHT22;20121;51.910;8.406;2022-11-20T06:43:48;18.60;96.10
33815;DHT22;20121;51.910;8.406;2022-11-20T06:46:15;18.60;96.10
33815;DHT22;20121;51.910;8.406;2022-11-20T06:48:43;18.60;96.10
33815;DHT22;20121;51.910;8.406;2022-11-20T06:51:09;18.60;95.80
33815;DHT22;20121;51.910;8.406;2022-11-20T06:53:35;18.60;96.10
33815;DHT22;20121;51.910;8.406;2022-11-20T06:56:02;18.60;96.00
33815;DHT22;20121;51.910;8.406;2022-11-20T06:58:29;18.60;96.10
33815;DHT22;20121;51.910;8.406;2022-11-20T07:01:02;18.50;95.70
33815;DHT22;20121;51.910;8.406;2022-11-20T07:03:29;18.60;96.00
33815;DHT22;20121;51.910;8.406;2022-11-20T07:05:58;18.60;96.00
33815;DHT22;20121;51.910;8.406;2022-11-20T07:08:25;18.60;96.00
33815;DHT22;20121;51.910;8.406;2022-11-20T07:10:51;18.50;95.70
33815;DHT22;20121;51.910;8.406;2022-11-20T07:13:16;18.50;96.00
33815;DHT22;20121;51.910;8.406;2022-11-20T07:15:42;18.50;96.00
33815;DHT22;20121;51.910;8.406;2022-11-20T07:18:08;18.50;99.90
33815;DHT22;20121;51.910;8.406;2022-11-20T07:20:33;18.50;96.00
33815;DHT22;20121;51.910;8.406;2022-11-20T07:22:59;18.50;96.30
33815;DHT22;20121;51.910;8.406;2022-11-20T07:25:26;18.50;96.30
33815;DHT22;20121;51.910;8.406;2022-11-20T07:27:51;18.50;96.30
33815;DHT22;20121;51.910;8.406;2022-11-20T07:30:18;18.40;96.10
33815;DHT22;20121;51.910;8.406;2022-11-20T07:32:46;18.40;96.10
33815;DHT22;20121;51.910;8.406;2022-11-20T07:35:13;18.40;96.40
33815;DHT22;20121;51.910;8.406;2022-11-20T07:37:38;18.40;96.40
33815;DHT22;20121;51.910;8.406;2022-11-20T07:40:04;18.40;96.20
33815;DHT22;20121;51.910;8.406;2022-11-20T07:42:30;18.40;96.50
33815;DHT22;20121;51.910;8.406;2022-11-20T07:44:55;18.50;97.50
33815;DHT22;20121;51.910;8.406;2022-11-20T07:47:21;18.40;96.50
33815;DHT22;20121;51.910;8.406;2022-11-20T07:52:13;18.30;96.20
33815;DHT22;20121;51.910;8.406;2022-11-20T07:54:38;18.30;96.50
33815;DHT22;20121;51.910;8.406;2022-11-20T07:57:04;18.40;96.60
33815;DHT22;20121;51.910;8.406;2022-11-20T07:59:29;18.20;99.90
33815;DHT22;20121;51.910;8.406;2022-11-20T08:01:55;18.30;96.60
33815;DHT22;20121;51.910;8.406;2022-11-20T08:04:21;18.30;96.60
33815;DHT22;20121;51.910;8.406;2022-11-20T08:06:47;18.30;96.60
33815;DHT22;20121;51.910;8.406;2022-11-20T08:09:12;18.10;98.30
33815;DHT22;20121;51.910;8.406;2022-11-20T08:11:38;18.30;96.60
33815;DHT22;20121;51.910;8.406;2022-11-20T08:14:22;18.30;96.60
33815;DHT22;20121;51.910;8.406;2022-11-20T08:16:49;18.30;96.70
33815;DHT22;20121;51.910;8.406;2022-11-20T08:19:17;18.10;99.10
33815;DHT22;20121;51.910;8.406;2022-11-20T08:21:43;18.30;96.70
33815;DHT22;20121;51.910;8.406;2022-11-20T08:24:10;18.30;96.70
33815;DHT22;20121;51.910;8.406;2022-11-20T08:26:36;18.30;97.00
33815;DHT22;20121;51.910;8.406;2022-11-20T08:29:02;18.20;96.60
33815;DHT22;20121;51.910;8.406;2022-11-20T08:31:28;18.20;96.40
33815;DHT22;20121;51.910;8.406;2022-11-20T08:33:55;18.20;96.70
33815;DHT22;20121;51.910;8.406;2022-11-20T08:36:22;18.20;96.70
33815;DHT22;20121;51.910;8.406;2022-11-20T08:38:53;18.20;96.70
33815;DHT22;20121;51.910;8.406;2022-11-20T08:41:19;18.20;96.40
33815;DHT22;20121;51.910;8.406;2022-11-20T08:43:58;18.20;96.70
33815;DHT22;20121;51.910;8.406;2022-11-20T08:46:32;18.20;96.70
33815;DHT22;20121;51.910;8.406;2022-11-20T08:49:09;18.20;96.70
33815;DHT22;20121;51.910;8.406;2022-11-20T08:51:36;18.20;96.40
33815;DHT22;20121;51.910;8.406;2022-11-20T08:54:03;18.20;96.70
33815;DHT22;20121;51.910;8.406;2022-11-20T08:56:29;18.20;96.70
33815;DHT22;20121;51.910;8.406;2022-11-20T08:58:54;18.20;96.70
33815;DHT22;20121;51.910;8.406;2022-11-20T09:01:21;18.20;96.40
33815;DHT22;20121;51.910;8.406;2022-11-20T09:03:47;18.20;96.70
33815;DHT22;20121;51.910;8.406;2022-11-20T09:06:13;18.20;96.70
33815;DHT22;20121;51.910;8.406;2022-11-20T09:08:39;18.20;96.80
33815;DHT22;20121;51.910;8.406;2022-11-20T09:11:06;18.20;96.50
33815;DHT22;20121;51.910;8.406;2022-11-20T09:13:33;18.20;96.80
33815;DHT22;20121;51.910;8.406;2022-11-20T09:16:02;18.20;96.80
33815;DHT22;20121;51.910;8.406;2022-11-20T09:18:28;18.10;96.70
33815;DHT22;20121;51.910;8.406;2022-11-20T09:20:59;18.10;96.50
33815;DHT22;20121;51.910;8.406;2022-11-20T09:23:25;18.10;96.80
33815;DHT22;20121;51.910;8.406;2022-11-20T09:25:51;18.10;96.80
33815;DHT22;20121;51.910;8.406;2022-11-20T09:28:18;18.20;96.90
33815;DHT22;20121;51.910;8.406;2022-11-20T09:33:10;18.20;96.50
33815;DHT22;20121;51.910;8.406;2022-11-20T09:35:35;18.20;96.80
33815;DHT22;20121;51.910;8.406;2022-11-20T09:38:07;18.20;96.70
33815;DHT22;20121;51.910;8.406;2022-11-20T09:40:35;18.20;96.40
33815;DHT22;20121;51.910;8.406;2022-11-20T09:43:18;18.20;96.60
33815;DHT22;20121;51.910;8.406;2022-11-20T09:51:16;18.30;96.20
33815;DHT22;20121;51.910;8.406;2022-11-20T09:54:11;18.30;96.40
33815;DHT22;20121;51.910;8.406;2022-11-20T09:56:42;18.30;96.30
33815;DHT22;20121;51.910;8.406;2022-11-20T09:59:19;18.30;95.90
33815;DHT22;20121;51.910;8.406;2022-11-20T10:01:48;18.30;96.20
33815;DHT22;20121;51.910;8.406;2022-11-20T10:04:19;18.40;96.20
33815;DHT22;20121;51.910;8.406;2022-11-20T10:07:11;18.40;96.10
33815;DHT22;20121;51.910;8.406;2022-11-20T10:09:40;18.40;95.80
33815;DHT22;20121;51.910;8.406;2022-11-20T10:15:44;18.40;96.00
33815;DHT22;20121;51.910;8.406;2022-11-20T10:31:42;18.40;95.50
33815;DHT22;20121;51.910;8.406;2022-11-20T10:35:05;18.40;95.70
33815;DHT22;20121;51.910;8.406;2022-11-20T10:37:22;18.40;95.70
33815;DHT22;20121;51.910;8.406;2022-11-20T10:42:39;18.40;95.60
33815;DHT22;20121;51.910;8.406;2022-11-20T10:48:01;18.40;95.50
33815;DHT22;20121;51.910;8.406;2022-11-20T10:50:35;18.40;95.20
33815;DHT22;20121;51.910;8.406;2022-11-20T10:53:14;18.40;95.50
33815;DHT22;20121;51.910;8.406;2022-11-20T10:55:57;18.50;99.90
33815;DHT22;20121;51.910;8.406;2022-11-20T10:58:43;18.40;95.40
33815;DHT22;20121;51.910;8.406;2022-11-20T11:01:16;18.40;95.10
33815;DHT22;20121;51.910;8.406;2022-11-20T11:03:42;18.40;95.40
33815;DHT22;20121;51.910;8.406;2022-11-20T11:06:29;18.40;95.40
33815;DHT22;20121;51.910;8.406;2022-11-20T11:09:01;18.40;95.30
33815;DHT22;20121;51.910;8.406;2022-11-20T11:11:33;18.40;95.00
33815;DHT22;20121;51.910;8.406;2022-11-20T11:14:13;18.40;95.30
33815;DHT22;20121;51.910;8.406;2022-11-20T11:17:18;18.40;95.30
33815;DHT22;20121;51.910;8.406;2022-11-20T11:19:45;18.40;95.00
33815;DHT22;20121;51.910;8.406;2022-11-20T11:22:18;18.40;95.20
33815;DHT22;20121;51.910;8.406;2022-11-20T11:24:52;18.30;95.20
33815;DHT22;20121;51.910;8.406;2022-11-20T11:27:18;18.40;95.20
33815;DHT22;20121;51.910;8.406;2022-11-20T11:29:44;18.40;94.80
33815;DHT22;20121;51.910;8.406;2022-11-20T11:32:17;18.30;95.10
33815;DHT22;20121;51.910;8.406;2022-11-20T11:34:43;18.40;95.10
33815;DHT22;20121;51.910;8.406;2022-11-20T11:37:19;18.30;95.00
33815;DHT22;20121;51.910;8.406;2022-11-20T11:39:47;18.30;94.80
33815;DHT22;20121;51.910;8.406;2022-11-20T11:42:18;18.30;95.00
33815;DHT22;20121;51.910;8.406;2022-11-20T11:44:46;18.40;95.00
33815;DHT22;20121;51.910;8.406;2022-11-20T11:47:33;18.30;95.00
33815;DHT22;20121;51.910;8.406;2022-11-20T11:50:14;18.30;94.70
33815;DHT22;20121;51.910;8.406;2022-11-20T11:52:59;18.30;95.00
33815;DHT22;20121;51.910;8.406;2022-11-20T12:00:54;18.30;94.70
33815;DHT22;20121;51.910;8.406;2022-11-20T12:03:27;18.30;94.90
33815;DHT22;20121;51.910;8.406;2022-11-20T12:06:05;18.30;94.90
33815;DHT22;20121;51.910;8.406;2022-11-20T12:08:45;18.30;94.90
33815;DHT22;20121;51.910;8.406;2022-11-20T12:16:40;18.30;94.90
33815;DHT22;20121;51.910;8.406;2022-11-20T12:19:12;18.30;94.90
33815;DHT22;20121;51.910;8.406;2022-11-20T12:30:26;18.30;94.60
33815;DHT22;20121;51.910;8.406;2022-11-20T12:32:59;18.30;94.90
33815;DHT22;20121;51.910;8.406;2022-11-20T12:47:58;18.20;94.80
33815;DHT22;20121;51.910;8.406;2022-11-20T12:53:25;18.20;94.80
33815;DHT22;20121;51.910;8.406;2022-11-20T12:59:09;18.20;94.80
33815;DHT22;20121;51.910;8.406;2022-11-20T13:01:40;18.20;94.50
33815;DHT22;20121;51.910;8.406;2022-11-20T13:06:48;18.20;94.80
33815;DHT22;20121;51.910;8.406;2022-11-20T13:09:18;18.50;95.80
33815;DHT22;20121;51.910;8.406;2022-11-20T13:11:46;18.10;95.10
33815;DHT22;20121;51.910;8.406;2022-11-20T13:19:29;18.60;99.90
33815;DHT22;20121;51.910;8.406;2022-11-20T13:21:55;18.10;94.70
33815;DHT22;20121;51.910;8.406;2022-11-20T13:27:03;18.10;94.70
33815;DHT22;20121;51.910;8.406;2022-11-20T13:29:29;17.70;99.90
33815;DHT22;20121;51.910;8.406;2022-11-20T13:32:15;18.10;94.70
33815;DHT22;20121;51.910;8.406;2022-11-20T13:34:55;18.10;94.70
33815;DHT22;20121;51.910;8.406;2022-11-20T13:37:31;18.10;94.70
33815;DHT22;20121;51.910;8.406;2022-11-20T13:45:34;18.10;94.70
33815;DHT22;20121;51.910;8.406;2022-11-20T13:48:15;18.00;94.70
33815;DHT22;20121;51.910;8.406;2022-11-20T13:59:28;18.00;94.70
33815;DHT22;20121;51.910;8.406;2022-11-20T14:01:56;18.00;94.40
33815;DHT22;20121;51.910;8.406;2022-11-20T14:04:28;18.00;94.70
33815;DHT22;20121;51.910;8.406;2022-11-20T14:06:54;18.00;94.70
33815;DHT22;20121;51.910;8.406;2022-11-20T14:11:52;18.00;94.70
33815;DHT22;20121;51.910;8.406;2022-11-20T14:14:20;18.00;94.70
33815;DHT22;20121;51.910;8.406;2022-11-20T14:16:47;18.00;94.70
33815;DHT22;20121;51.910;8.406;2022-11-20T14:21:45;17.90;94.70
33815;DHT22;20121;51.910;8.406;2022-11-20T14:24:12;17.90;94.70
33815;DHT22;20121;51.910;8.406;2022-11-20T14:26:42;17.90;94.70
33815;DHT22;20121;51.910;8.406;2022-11-20T14:29:20;17.90;94.40
33815;DHT22;20121;51.910;8.406;2022-11-20T14:31:48;17.90;94.60
33815;DHT22;20121;51.910;8.406;2022-11-20T14:34:28;17.90;94.60
33815;DHT22;20121;51.910;8.406;2022-11-20T14:36:59;17.90;94.60
33815;DHT22;20121;51.910;8.406;2022-11-20T14:39:41;17.60;99.90
33815;DHT22;20121;51.910;8.406;2022-11-20T14:42:23;17.90;94.60
33815;DHT22;20121;51.910;8.406;2022-11-20T14:44:50;17.90;94.60
33815;DHT22;20121;51.910;8.406;2022-11-20T14:47:29;17.90;94.70
33815;DHT22;20121;51.910;8.406;2022-11-20T14:49:57;17.90;94.40
33815;DHT22;20121;51.910;8.406;2022-11-20T14:52:25;17.90;94.70
33815;DHT22;20121;51.910;8.406;2022-11-20T14:54:53;17.90;94.70
33815;DHT22;20121;51.910;8.406;2022-11-20T14:57:30;17.90;94.70
33815;DHT22;20121;51.910;8.406;2022-11-20T15:02:45;17.90;94.70
33815;DHT22;20121;51.910;8.406;2022-11-20T15:05:11;17.90;94.70
33815;DHT22;20121;51.910;8.406;2022-11-20T15:07:43;17.90;94.70
33815;DHT22;20121;51.910;8.406;2022-11-20T15:10:27;18.00;94.50
33815;DHT22;20121;51.910;8.406;2022-11-20T15:13:13;17.90;94.70
33815;DHT22;20121;51.910;8.406;2022-11-20T15:15:47;18.00;94.70
33815;DHT22;20121;51.910;8.406;2022-11-20T15:18:16;18.00;94.70
33815;DHT22;20121;51.910;8.406;2022-11-20T15:20:43;18.00;94.40
33815;DHT22;20121;51.910;8.406;2022-11-20T15:23:16;18.00;94.70
33815;DHT22;20121;51.910;8.406;2022-11-20T15:25:46;18.10;94.70
33815;DHT22;20121;51.910;8.406;2022-11-20T15:28:19;18.10;94.70
33815;DHT22;20121;51.910;8.406;2022-11-20T15:30:47;18.10;94.40
33815;DHT22;20121;51.910;8.406;2022-11-20T15:33:14;18.10;94.60
33815;DHT22;20121;51.910;8.406;2022-11-20T15:35:40;18.10;94.60
33815;DHT22;20121;51.910;8.406;2022-11-20T15:38:05;18.10;94.60
33815;DHT22;20121;51.910;8.406;2022-11-20T15:40:31;18.10;94.40
33815;DHT22;20121;51.910;8.406;2022-11-20T15:42:57;18.10;94.60
33815;DHT22;20121;51.910;8.406;2022-11-20T15:45:47;18.10;94.60
33815;DHT22;20121;51.910;8.406;2022-11-20T15:48:20;18.10;94.50
33815;DHT22;20121;51.910;8.406;2022-11-20T15:53:18;18.10;94.50
33815;DHT22;20121;51.910;8.406;2022-11-20T15:55:44;18.10;94.50
33815;DHT22;20121;51.910;8.406;2022-11-20T15:58:09;18.10;94.50
33815;DHT22;20121;51.910;8.406;2022-11-20T16:00:35;18.10;94.20
33815;DHT22;20121;51.910;8.406;2022-11-20T16:03:00;18.10;94.50
33815;DHT22;20121;51.910;8.406;2022-11-20T16:05:29;18.10;94.50
33815;DHT22;20121;51.910;8.406;2022-11-20T16:07:56;18.10;94.70
33815;DHT22;20121;51.910;8.406;2022-11-20T16:10:22;18.10;94.30
33815;DHT22;20121;51.910;8.406;2022-11-20T16:12:47;18.10;94.60
33815;DHT22;20121;51.910;8.406;2022-11-20T16:15:31;18.20;94.70
33815;DHT22;20121;51.910;8.406;2022-11-20T16:18:15;18.10;94.60
33815;DHT22;20121;51.910;8.406;2022-11-20T16:20:40;18.10;94.40
33815;DHT22;20121;51.910;8.406;2022-11-20T16:23:06;18.10;94.70
33815;DHT22;20121;51.910;8.406;2022-11-20T16:25:33;18.10;94.70
33815;DHT22;20121;51.910;8.406;2022-11-20T16:27:58;18.10;94.70
33815;DHT22;20121;51.910;8.406;2022-11-20T16:30:24;18.10;94.40
33815;DHT22;20121;51.910;8.406;2022-11-20T16:32:50;18.10;94.70
33815;DHT22;20121;51.910;8.406;2022-11-20T16:35:16;18.10;94.70
33815;DHT22;20121;51.910;8.406;2022-11-20T16:37:41;18.00;94.60
33815;DHT22;20121;51.910;8.406;2022-11-20T16:40:09;18.00;94.40
33815;DHT22;20121;51.910;8.406;2022-11-20T16:42:36;18.00;94.70
33815;DHT22;20121;51.910;8.406;2022-11-20T16:45:03;18.00;94.70
33815;DHT22;20121;51.910;8.406;2022-11-20T16:47:35;18.00;94.70
33815;DHT22;20121;51.910;8.406;2022-11-20T16:50:02;18.00;94.40
33815;DHT22;20121;51.910;8.406;2022-11-20T16:52:29;18.00;94.70
33815;DHT22;20121;51.910;8.406;2022-11-20T16:54:55;18.00;94.80
33815;DHT22;20121;51.910;8.406;2022-11-20T16:57:21;18.00;94.70
33815;DHT22;20121;51.910;8.406;2022-11-20T16:59:47;18.00;94.50
33815;DHT22;20121;51.910;8.406;2022-11-20T17:02:13;17.90;94.70
33815;DHT22;20121;51.910;8.406;2022-11-20T17:04:38;17.90;94.70
33815;DHT22;20121;51.910;8.406;2022-11-20T17:07:06;17.90;94.70
33815;DHT22;20121;51.910;8.406;2022-11-20T17:09:31;17.30;99.90
33815;DHT22;20121;51.910;8.406;2022-11-20T17:11:57;17.90;94.70
33815;DHT22;20121;51.910;8.406;2022-11-20T17:14:22;17.90;94.70
33815;DHT22;20121;51.910;8.406;2022-11-20T17:16:48;17.80;94.60
33815;DHT22;20121;51.910;8.406;2022-11-20T17:19:14;17.70;96.10
33815;DHT22;20121;51.910;8.406;2022-11-20T17:21:40;17.80;94.70
33815;DHT22;20121;51.910;8.406;2022-11-20T17:24:08;17.80;94.70
33815;DHT22;20121;51.910;8.406;2022-11-20T17:26:35;17.80;94.70
33815;DHT22;20121;51.910;8.406;2022-11-20T17:29:06;17.80;94.70
33815;DHT22;20121;51.910;8.406;2022-11-20T17:31:35;17.80;94.50
33815;DHT22;20121;51.910;8.406;2022-11-20T17:34:03;17.80;94.70
33815;DHT22;20121;51.910;8.406;2022-11-20T17:36:30;17.80;94.70
33815;DHT22;20121;51.910;8.406;2022-11-20T17:38:56;17.80;94.70
33815;DHT22;20121;51.910;8.406;2022-11-20T17:41:24;17.80;94.40